createdAt,value
2019-01-26T00:01:04.937Z,4.43
2019-01-26T00:03:55.837Z,4.17
2019-01-26T00:06:46.425Z,4.40
2019-01-26T00:09:36.894Z,3.93
2019-01-26T00:12:27.778Z,4.07
2019-01-26T00:15:19.157Z,4.53
2019-01-26T00:18:09.857Z,3.83
2019-01-26T00:21:00.722Z,3.23
2019-01-26T00:23:51.508Z,4.43
2019-01-26T00:26:41.976Z,3.77
2019-01-26T00:29:32.517Z,3.67
2019-01-26T00:32:22.857Z,3.50
2019-01-26T00:35:13.093Z,4.43
2019-01-26T00:38:04.403Z,3.77
2019-01-26T00:40:55.436Z,3.63
2019-01-26T00:43:46.317Z,3.17
2019-01-26T00:46:36.831Z,3.13
2019-01-26T00:49:26.677Z,3.10
2019-01-26T00:52:17.397Z,4.07
2019-01-26T00:55:08.399Z,3.47
2019-01-26T00:57:59.136Z,4.03
2019-01-26T01:00:50.819Z,4.70
2019-01-26T01:03:41.071Z,2.87
2019-01-26T01:06:31.277Z,2.17
2019-01-26T01:09:22.400Z,2.73
2019-01-26T01:12:12.397Z,3.63
2019-01-26T01:15:03.277Z,2.73
2019-01-26T01:17:53.897Z,3.10
2019-01-26T01:20:44.444Z,3.23
2019-01-26T01:23:35.005Z,2.93
2019-01-26T01:26:25.537Z,2.87
2019-01-26T01:29:15.849Z,2.80
2019-01-26T01:32:05.999Z,2.53
2019-01-26T01:34:56.513Z,3.20
2019-01-26T01:37:47.499Z,3.10
2019-01-26T01:40:38.217Z,2.50
2019-01-26T01:43:28.339Z,2.37
2019-01-26T01:46:18.643Z,2.60
2019-01-26T01:49:09.299Z,3.07
2019-01-26T01:52:00.586Z,2.97
2019-01-26T01:54:50.837Z,2.83
2019-01-26T01:57:41.157Z,2.80
2019-01-26T02:00:31.520Z,2.47
2019-01-26T02:03:21.845Z,2.43
2019-01-26T02:06:12.950Z,2.23
2019-01-26T02:09:05.556Z,2.63
2019-01-26T02:11:56.437Z,3.73
2019-01-26T02:14:46.922Z,2.50
2019-01-26T02:17:37.857Z,2.73
2019-01-26T02:20:28.577Z,3.33
2019-01-26T02:23:19.277Z,2.80
2019-01-26T02:26:10.180Z,3.23
2019-01-26T02:29:01.241Z,3.17
2019-01-26T02:31:52.257Z,2.77
2019-01-26T02:34:43.141Z,2.93
2019-01-26T02:37:33.376Z,2.73
2019-01-26T02:40:24.239Z,3.13
2019-01-26T02:43:14.337Z,3.30
2019-01-26T02:46:04.168Z,3.13
2019-01-26T02:48:54.977Z,3.13
2019-01-26T02:51:47.261Z,2.97
2019-01-26T02:54:38.035Z,2.30
2019-01-26T02:57:28.535Z,3.00
2019-01-26T03:04:14.334Z,2.70
2019-01-26T03:07:04.331Z,2.40
2019-01-26T03:09:56.036Z,3.37
2019-01-26T03:12:47.954Z,3.20
2019-01-26T03:15:38.531Z,3.20
2019-01-26T03:18:29.393Z,3.10
2019-01-26T03:21:19.278Z,2.53
2019-01-26T03:24:10.194Z,3.17
2019-01-26T03:27:00.151Z,2.63
2019-01-26T03:29:50.194Z,2.40
2019-01-26T03:32:40.634Z,2.47
2019-01-26T03:35:30.918Z,3.00
2019-01-26T03:38:21.202Z,2.70
2019-01-26T03:41:11.631Z,2.57
2019-01-26T03:44:02.593Z,3.03
2019-01-26T03:46:53.391Z,2.50
2019-01-26T03:49:44.152Z,2.80
2019-01-26T03:52:34.894Z,2.70
2019-01-26T03:55:25.830Z,2.43
2019-01-26T03:58:15.933Z,1.90
2019-01-26T04:01:07.155Z,2.50
2019-01-26T04:03:58.492Z,2.13
2019-01-26T04:06:49.212Z,2.30
2019-01-26T04:09:39.532Z,2.03
2019-01-26T04:12:29.487Z,2.00
2019-01-26T04:15:20.072Z,2.03
2019-01-26T04:18:11.133Z,2.70
2019-01-26T04:21:01.052Z,2.17
2019-01-26T04:23:51.292Z,2.40
2019-01-26T04:26:41.708Z,2.63
2019-01-26T04:29:33.054Z,2.47
2019-01-26T04:32:23.134Z,2.30
2019-01-26T04:35:13.913Z,2.03
2019-01-26T04:38:04.773Z,2.27
2019-01-26T04:40:55.034Z,2.93
2019-01-26T04:43:45.380Z,2.37
2019-01-26T04:46:36.413Z,2.07
2019-01-26T04:49:26.912Z,2.80
2019-01-26T04:52:18.813Z,2.97
2019-01-26T04:55:09.480Z,2.97
2019-01-26T04:58:00.272Z,2.57
2019-01-26T05:00:50.535Z,2.83
2019-01-26T05:03:41.054Z,2.77
2019-01-26T05:06:31.741Z,2.03
2019-01-26T05:09:21.652Z,2.40
2019-01-26T05:12:11.832Z,2.63
2019-01-26T05:15:01.566Z,2.60
2019-01-26T05:17:52.265Z,3.20
2019-01-26T05:20:43.154Z,2.70
2019-01-26T05:23:33.372Z,3.73
2019-01-26T05:26:23.936Z,3.17
2019-01-26T05:29:13.960Z,2.60
2019-01-26T05:32:04.631Z,3.47
2019-01-26T05:34:54.453Z,2.87
2019-01-26T05:37:46.172Z,1.93
2019-01-26T05:40:36.741Z,2.23
2019-01-26T05:43:27.612Z,2.20
2019-01-26T05:46:18.493Z,2.83
2019-01-26T05:49:09.692Z,3.50
2019-01-26T05:52:00.579Z,4.53
2019-01-26T05:54:51.133Z,4.50
2019-01-26T05:57:42.332Z,4.70
2019-01-26T06:00:36.852Z,5.10
2019-01-26T06:03:27.654Z,3.40
2019-01-26T06:06:18.030Z,2.80
2019-01-26T06:09:10.754Z,2.60
2019-01-26T06:12:01.233Z,2.47
2019-01-26T06:14:52.155Z,2.60
2019-01-26T06:17:41.995Z,3.40
2019-01-26T06:20:32.585Z,2.67
2019-01-26T06:23:22.972Z,3.03
2019-01-26T06:26:13.541Z,3.33
2019-01-26T06:29:03.490Z,4.67
2019-01-26T06:31:54.330Z,8.57
2019-01-26T06:34:45.236Z,7.23
2019-01-26T06:37:36.332Z,6.67
2019-01-26T06:40:25.843Z,5.90
2019-01-26T06:43:16.392Z,5.17
2019-01-26T06:46:06.792Z,4.83
2019-01-26T06:49:00.213Z,3.47
2019-01-26T06:52:00.252Z,2.53
2019-01-26T06:54:51.632Z,4.60
2019-01-26T06:57:42.353Z,6.07
2019-01-26T07:00:32.694Z,4.77
2019-01-26T07:03:23.073Z,4.67
2019-01-26T07:06:21.060Z,4.70
2019-01-26T07:09:12.272Z,4.63
2019-01-26T07:12:02.672Z,4.17
2019-01-26T07:14:53.692Z,3.47
2019-01-26T07:17:44.093Z,3.33
2019-01-26T07:20:34.653Z,3.60
2019-01-26T07:23:24.853Z,2.97
2019-01-26T07:26:15.313Z,3.67
2019-01-26T07:29:07.453Z,3.67
2019-01-26T07:31:58.653Z,3.73
2019-01-26T07:34:49.210Z,3.27
2019-01-26T07:37:40.094Z,3.33
2019-01-26T07:40:30.252Z,3.40
2019-01-26T07:43:20.392Z,3.27
2019-01-26T07:46:10.532Z,3.67
2019-01-26T07:49:01.054Z,3.07
2019-01-26T07:51:51.191Z,3.20
2019-01-26T07:54:42.354Z,7.53
2019-01-26T07:57:32.492Z,8.27
2019-01-26T08:00:25.007Z,7.53
2019-01-26T08:03:15.592Z,5.70
2019-01-26T08:06:08.712Z,6.00
2019-01-26T08:08:58.832Z,5.27
2019-01-26T08:11:49.732Z,4.50
2019-01-26T08:14:39.736Z,5.33
2019-01-26T08:17:30.492Z,4.80
2019-01-26T08:20:21.391Z,4.27
2019-01-26T08:23:11.412Z,3.03
2019-01-26T08:26:02.052Z,2.90
2019-01-26T08:28:52.432Z,3.30
2019-01-26T08:31:42.434Z,2.93
2019-01-26T08:34:32.571Z,2.50
2019-01-26T08:37:23.293Z,2.40
2019-01-26T08:40:14.333Z,2.93
2019-01-26T08:43:05.374Z,2.07
2019-01-26T08:45:55.292Z,4.13
2019-01-26T08:48:45.532Z,4.07
2019-01-26T08:51:35.193Z,4.63
2019-01-26T08:54:25.553Z,4.70
2019-01-26T08:57:16.580Z,4.63
2019-01-26T09:00:10.012Z,4.60
2019-01-26T09:03:17.712Z,3.57
2019-01-26T09:06:25.552Z,3.70
2019-01-26T09:09:16.151Z,3.57
2019-01-26T09:12:07.291Z,4.57
2019-01-26T09:14:57.528Z,4.10
2019-01-26T09:17:48.151Z,4.00
2019-01-26T09:20:39.471Z,3.67
2019-01-26T09:23:29.772Z,3.60
2019-01-26T09:26:20.172Z,3.00
2019-01-26T09:29:10.992Z,2.77
2019-01-26T09:32:01.853Z,2.93
2019-01-26T09:34:53.531Z,3.60
2019-01-26T09:37:44.478Z,3.27
2019-01-26T09:40:35.912Z,3.67
2019-01-26T09:43:26.445Z,3.17
2019-01-26T09:46:16.715Z,3.20
2019-01-26T09:49:07.792Z,3.30
2019-01-26T09:51:58.738Z,3.20
2019-01-26T09:54:49.208Z,3.43
2019-01-26T09:57:40.471Z,4.50
2019-01-26T10:00:31.735Z,3.57
2019-01-26T10:03:22.155Z,3.40
2019-01-26T10:06:13.072Z,3.70
2019-01-26T10:09:04.995Z,4.17
2019-01-26T10:11:55.213Z,4.33
2019-01-26T10:14:45.425Z,3.03
2019-01-26T10:17:35.466Z,3.70
2019-01-26T10:20:28.092Z,4.10
2019-01-26T10:23:18.492Z,4.07
2019-01-26T10:26:09.294Z,4.50
2019-01-26T10:28:59.674Z,3.53
2019-01-26T10:31:50.331Z,3.83
2019-01-26T10:34:41.872Z,4.73
2019-01-26T10:37:32.209Z,4.13
2019-01-26T10:40:44.193Z,4.03
2019-01-26T10:43:38.352Z,4.43
2019-01-26T10:46:29.552Z,3.40
2019-01-26T10:49:20.571Z,3.37
2019-01-26T10:52:11.155Z,3.67
2019-01-26T10:55:01.212Z,3.97
2019-01-26T10:57:52.252Z,3.33
2019-01-26T11:00:42.712Z,3.40
2019-01-26T11:03:33.074Z,2.97
2019-01-26T11:06:24.331Z,3.27
2019-01-26T11:09:15.031Z,3.73
2019-01-26T11:12:04.948Z,3.60
2019-01-26T11:14:55.293Z,3.10
2019-01-26T11:17:46.191Z,2.63
2019-01-26T11:20:36.732Z,3.13
2019-01-26T11:23:27.652Z,2.87
2019-01-26T11:26:18.513Z,3.87
2019-01-26T11:29:09.852Z,3.33
2019-01-26T11:32:00.173Z,5.50
2019-01-26T11:34:50.492Z,4.53
2019-01-26T11:37:40.865Z,4.20
2019-01-26T11:40:30.871Z,5.90
2019-01-26T11:43:21.112Z,5.63
2019-01-26T11:46:29.830Z,5.50
2019-01-26T11:49:20.732Z,5.43
2019-01-26T11:52:11.917Z,5.33
2019-01-26T11:55:21.252Z,6.00
2019-01-26T11:58:24.171Z,5.87
2019-01-26T12:01:32.083Z,6.20
2019-01-26T12:04:51.166Z,5.90
2019-01-26T12:07:41.693Z,6.60
2019-01-26T12:10:31.707Z,7.77
2019-01-26T12:13:22.232Z,6.87
2019-01-26T12:16:12.719Z,6.03
2019-01-26T12:19:02.992Z,7.03
2019-01-26T12:21:52.994Z,7.03
2019-01-26T12:24:43.076Z,6.50
2019-01-26T12:27:33.283Z,5.73
2019-01-26T12:30:23.933Z,5.70
2019-01-26T12:33:14.230Z,5.67
2019-01-26T12:36:04.693Z,6.37
2019-01-26T12:38:55.419Z,5.70
2019-01-26T12:41:45.843Z,7.40
2019-01-26T12:44:35.533Z,6.77
2019-01-26T12:47:26.113Z,6.13
2019-01-26T12:50:17.711Z,7.47
2019-01-26T12:53:08.432Z,8.07
2019-01-26T12:55:58.952Z,6.73
2019-01-26T12:58:49.231Z,7.40
2019-01-26T13:01:39.205Z,6.57
2019-01-26T13:04:30.333Z,6.90
2019-01-26T13:07:20.712Z,7.90
2019-01-26T13:10:23.751Z,6.43
2019-01-26T13:13:14.331Z,6.17
2019-01-26T13:16:05.972Z,7.67
2019-01-26T13:18:56.426Z,6.70
2019-01-26T13:21:46.831Z,6.53
2019-01-26T13:24:37.491Z,6.07
2019-01-26T13:27:27.573Z,6.73
2019-01-26T13:30:19.230Z,6.60
2019-01-26T13:33:10.334Z,6.83
2019-01-26T13:36:01.113Z,8.23
2019-01-26T13:38:51.813Z,8.03
2019-01-26T13:41:42.333Z,6.90
2019-01-26T13:44:32.593Z,8.27
2019-01-26T13:47:23.071Z,8.13
2019-01-26T13:50:14.678Z,7.03
2019-01-26T13:53:06.332Z,7.97
2019-01-26T13:55:56.963Z,7.57
2019-01-26T13:58:47.792Z,8.70
2019-01-26T14:01:38.513Z,7.07
2019-01-26T14:04:28.433Z,6.70
2019-01-26T14:07:19.272Z,8.53
2019-01-26T14:10:12.112Z,8.53
2019-01-26T14:13:02.735Z,6.83
2019-01-26T14:15:53.208Z,7.80
2019-01-26T14:18:43.989Z,8.93
2019-01-26T14:21:35.331Z,8.37
2019-01-26T14:24:26.172Z,7.00
2019-01-26T14:27:17.073Z,7.17
2019-01-26T14:30:13.072Z,7.37
2019-01-26T14:33:03.788Z,14.23
2019-01-26T14:35:54.493Z,11.10
2019-01-26T14:38:45.492Z,10.53
2019-01-26T14:41:36.593Z,9.80
2019-01-26T14:44:27.133Z,9.63
2019-01-26T14:47:17.332Z,11.50
2019-01-26T14:50:09.211Z,12.33
2019-01-26T14:52:59.778Z,12.00
2019-01-26T14:55:50.072Z,12.63
2019-01-26T14:58:40.912Z,15.77
2019-01-26T15:01:31.533Z,10.80
2019-01-26T15:04:22.353Z,9.27
2019-01-26T15:07:12.766Z,10.73
2019-01-26T15:10:04.312Z,7.43
2019-01-26T15:12:55.011Z,7.93
2019-01-26T15:15:46.053Z,8.73
2019-01-26T15:18:36.133Z,7.93
2019-01-26T15:21:26.920Z,8.10
2019-01-26T15:24:17.432Z,8.57
2019-01-26T15:27:07.751Z,7.97
2019-01-26T15:29:57.632Z,8.17
2019-01-26T15:32:48.247Z,8.70
2019-01-26T15:35:39.061Z,8.17
2019-01-26T15:38:30.472Z,9.17
2019-01-26T15:41:20.832Z,8.50
2019-01-26T15:44:12.112Z,8.27
2019-01-26T15:47:02.394Z,9.10
2019-01-26T15:49:52.633Z,8.60
2019-01-26T15:52:43.219Z,6.90
2019-01-26T15:55:33.614Z,6.30
2019-01-26T15:58:23.872Z,8.03
2019-01-26T16:01:15.333Z,6.97
2019-01-26T16:04:05.521Z,5.67
2019-01-26T16:06:55.892Z,3.73
2019-01-26T16:09:46.119Z,3.63
2019-01-26T16:12:36.172Z,10.07
2019-01-26T16:15:28.351Z,5.80
2019-01-26T16:18:20.333Z,0.73
2019-01-26T16:21:11.293Z,0.70
2019-01-26T16:24:02.422Z,0.83
2019-01-26T16:26:53.153Z,0.77
2019-01-26T16:29:45.332Z,0.77
2019-01-26T16:32:35.394Z,1.67
2019-01-26T16:35:28.353Z,1.03
2019-01-26T16:38:22.639Z,1.50
2019-01-26T16:41:13.652Z,0.53
2019-01-26T16:44:04.097Z,0.53
2019-01-26T16:46:54.973Z,0.57
2019-01-26T16:49:45.746Z,0.70
2019-01-26T16:52:36.255Z,0.77
2019-01-26T16:55:27.972Z,0.67
2019-01-26T16:58:18.054Z,0.80
2019-01-26T17:01:08.691Z,0.60
2019-01-26T17:04:00.213Z,1.03
2019-01-26T17:06:50.774Z,0.67
2019-01-26T17:09:41.075Z,0.77
2019-01-26T17:12:32.393Z,0.77
2019-01-26T17:15:22.339Z,0.53
2019-01-26T17:18:14.129Z,0.60
2019-01-26T17:21:04.898Z,0.40
2019-01-26T17:23:56.727Z,0.50
2019-01-26T17:26:52.615Z,0.47
2019-01-26T17:29:39.433Z,0.40
2019-01-26T17:32:30.019Z,0.37
2019-01-26T17:35:21.552Z,0.50
2019-01-26T17:38:12.442Z,0.43
2019-01-26T17:41:02.696Z,0.70
2019-01-26T17:43:53.085Z,1.73
2019-01-26T17:46:44.091Z,1.13
2019-01-26T17:49:35.353Z,0.90
2019-01-26T17:52:26.255Z,0.60
2019-01-26T17:55:17.914Z,0.70
2019-01-26T17:58:08.412Z,0.90
2019-01-26T18:01:00.338Z,2.33
2019-01-26T18:03:50.772Z,1.77
2019-01-26T18:06:41.552Z,1.27
2019-01-26T18:09:32.432Z,1.77
2019-01-26T18:12:22.670Z,1.63
2019-01-26T18:15:13.773Z,1.30
2019-01-26T18:18:04.634Z,1.70
2019-01-26T18:20:55.293Z,1.17
2019-01-26T18:23:46.612Z,0.90
2019-01-26T18:26:37.552Z,1.20
2019-01-26T18:29:27.933Z,1.30
2019-01-26T18:32:18.492Z,0.90
2019-01-26T18:35:10.092Z,0.70
2019-01-26T18:38:00.573Z,1.17
2019-01-26T18:40:51.792Z,1.40
2019-01-26T18:43:42.351Z,1.00
2019-01-26T18:46:32.912Z,1.10
2019-01-26T18:49:23.473Z,1.63
2019-01-26T18:52:14.657Z,1.07
2019-01-26T18:55:04.820Z,1.23
2019-01-26T18:57:55.651Z,1.37
2019-01-26T19:00:49.233Z,1.10
2019-01-26T19:03:48.592Z,1.03
2019-01-26T19:06:39.312Z,1.50
2019-01-26T19:09:29.534Z,0.90
2019-01-26T19:12:20.414Z,1.37
2019-01-26T19:15:13.656Z,1.57
2019-01-26T19:18:04.516Z,1.40
2019-01-26T19:20:54.719Z,1.47
2019-01-26T19:23:45.940Z,1.53
2019-01-26T19:26:36.078Z,1.30
2019-01-26T19:29:26.734Z,1.17
2019-01-26T19:32:16.912Z,1.80
2019-01-26T19:35:08.772Z,1.70
2019-01-26T19:37:59.355Z,1.47
2019-01-26T19:40:49.872Z,1.43
2019-01-26T19:43:40.378Z,1.93
2019-01-26T19:46:30.911Z,1.60
2019-01-26T19:49:21.573Z,2.00
2019-01-26T19:52:12.363Z,1.87
2019-01-26T19:55:03.172Z,1.60
2019-01-26T19:57:54.074Z,1.60
2019-01-26T20:00:44.412Z,2.30
2019-01-26T20:03:35.952Z,2.70
2019-01-26T20:06:26.695Z,1.93
2019-01-26T20:09:17.951Z,2.30
2019-01-26T20:12:08.580Z,2.73
2019-01-26T20:14:59.241Z,1.87
2019-01-26T20:17:49.528Z,1.60
2019-01-26T20:20:40.309Z,1.70
2019-01-26T20:23:32.412Z,2.40
2019-01-26T20:26:23.452Z,2.30
2019-01-26T20:29:13.790Z,2.00
2019-01-26T20:32:04.452Z,3.23
2019-01-26T20:34:54.892Z,1.90
2019-01-26T20:37:45.696Z,2.13
2019-01-26T20:40:36.812Z,2.20
2019-01-26T20:43:27.231Z,1.70
2019-01-26T20:46:18.581Z,2.23
2019-01-26T20:49:11.935Z,1.97
2019-01-26T20:52:02.274Z,2.60
2019-01-26T20:54:53.062Z,1.90
2019-01-26T20:57:43.872Z,2.40
2019-01-26T21:00:34.242Z,1.67
2019-01-26T21:03:24.331Z,2.13
2019-01-26T21:06:15.012Z,1.60
2019-01-26T21:09:08.093Z,2.03
2019-01-26T21:11:59.635Z,2.10
2019-01-26T21:14:50.111Z,2.23
2019-01-26T21:17:42.012Z,2.40
2019-01-26T21:20:32.604Z,2.13
2019-01-26T21:23:23.532Z,2.60
2019-01-26T21:26:14.352Z,2.50
2019-01-26T21:29:06.708Z,2.37
2019-01-26T21:31:57.372Z,2.97
2019-01-26T21:34:47.652Z,2.53
2019-01-26T21:37:38.232Z,3.63
2019-01-26T21:40:32.509Z,2.80
2019-01-26T21:43:23.613Z,3.20
2019-01-26T21:46:14.575Z,3.17
2019-01-26T21:49:05.555Z,5.13
2019-01-26T21:51:56.124Z,6.07
2019-01-26T21:54:46.352Z,4.47
2019-01-26T21:57:36.676Z,5.40
2019-01-26T22:00:32.575Z,5.43
2019-01-26T22:03:23.694Z,5.13
2019-01-26T22:06:14.994Z,5.90
2019-01-26T22:09:08.309Z,5.57
2019-01-26T22:11:59.942Z,5.00
2019-01-26T22:14:50.832Z,5.70
2019-01-26T22:17:42.018Z,5.37
2019-01-26T22:20:33.592Z,6.27
2019-01-26T22:23:24.412Z,6.23
2019-01-26T22:26:15.679Z,5.33
2019-01-26T22:29:06.834Z,5.20
2019-01-26T22:31:57.561Z,5.40
2019-01-26T22:34:47.554Z,5.43
2019-01-26T22:37:38.007Z,5.97
2019-01-26T22:40:36.868Z,4.03
2019-01-26T22:43:27.972Z,5.20
2019-01-26T22:46:18.652Z,3.90
2019-01-26T22:49:18.926Z,4.40
2019-01-26T22:52:09.872Z,4.47
2019-01-26T22:54:59.972Z,4.60
2019-01-26T22:57:50.977Z,6.00
2019-01-26T23:01:08.115Z,4.87
2019-01-26T23:04:25.552Z,5.03
2019-01-26T23:07:37.847Z,4.60
2019-01-26T23:11:06.014Z,5.37
2019-01-26T23:14:19.473Z,4.33
2019-01-26T23:17:56.072Z,4.87
2019-01-26T23:21:30.532Z,5.97
2019-01-26T23:24:46.933Z,5.73
2019-01-26T23:28:20.752Z,5.57
2019-01-26T23:31:18.811Z,5.57
2019-01-26T23:34:09.371Z,6.00
2019-01-26T23:37:00.732Z,6.53
2019-01-26T23:39:50.912Z,5.50
2019-01-26T23:42:42.037Z,6.30
2019-01-26T23:45:33.010Z,5.57
2019-01-26T23:48:23.232Z,6.57
2019-01-26T23:51:13.661Z,5.00
2019-01-26T23:54:05.115Z,7.07
2019-01-26T23:56:55.752Z,6.53
2019-01-26T23:59:46.637Z,5.63
